Time;durP1;ratioP1;P1;durP2;ratioP2;P2;SDS_P1;SDS_P2;PMS_P1;PMS_P2;Temp;Humidity;BMP_temperature;BMP_pressure;BME280_temperature;BME280_humidity;BME280_pressure;Samples;Min_cycle;Max_cycle;Signal;HPM_P1;HPM_P2
2022/05/31 00:00:37;;;;;;;6.50;3.03;;;13.90;99.90;;;;;;4987236;28;20067;-89
2022/05/31 00:03:04;;;;;;;7.40;2.90;;;13.90;99.90;;;;;;4987194;28;20027;-87
2022/05/31 00:05:30;;;;;;;8.15;3.55;;;13.90;99.90;;;;;;4991871;28;20038;-85
2022/05/31 00:07:56;;;;;;;6.80;2.85;;;13.90;99.90;;;;;;4987745;28;20045;-87
2022/05/31 00:10:22;;;;;;;4.43;2.03;;;13.80;99.90;;;;;;4989442;28;20042;-87
2022/05/31 00:12:48;;;;;;;4.22;2.13;;;13.80;99.90;;;;;;4989482;28;20398;-88
2022/05/31 00:15:15;;;;;;;5.70;1.92;;;13.80;99.90;;;;;;4986383;28;20031;-88
2022/05/31 00:17:41;;;;;;;3.25;1.92;;;13.70;99.90;;;;;;4986121;28;20085;-88
2022/05/31 00:20:10;;;;;;;8.73;2.30;;;13.70;99.90;;;;;;4983445;28;20039;-88
2022/05/31 00:22:36;;;;;;;5.40;2.30;;;13.70;99.90;;;;;;4983487;28;20087;-89
2022/05/31 00:25:04;;;;;;;7.57;2.42;;;13.60;99.90;;;;;;4995056;28;20046;-86
2022/05/31 00:27:30;;;;;;;2.97;1.58;;;13.60;99.90;;;;;;5000995;28;20054;-87
2022/05/31 00:29:56;;;;;;;6.13;1.80;;;13.60;99.90;;;;;;5000221;28;20232;-84
2022/05/31 00:32:30;;;;;;;7.70;1.90;;;13.60;99.90;;;;;;4998426;28;20036;-86
2022/05/31 00:35:02;;;;;;;5.15;1.65;;;13.50;99.90;;;;;;4988807;28;20479;-86
2022/05/31 00:37:28;;;;;;;4.32;1.70;;;13.50;99.90;;;;;;4988064;28;20174;-88
2022/05/31 00:39:53;;;;;;;6.85;2.45;;;13.50;99.90;;;;;;4988798;28;20034;-85
2022/05/31 00:42:21;;;;;;;3.30;1.90;;;13.40;99.90;;;;;;4987307;28;20031;-85
2022/05/31 00:44:48;;;;;;;5.07;1.77;;;13.30;99.90;;;;;;4987531;28;20026;-87
2022/05/31 00:47:30;;;;;;;3.50;1.95;;;13.30;99.90;;;;;;4989063;28;20027;-87
2022/05/31 00:50:06;;;;;;;4.55;1.83;;;13.30;99.90;;;;;;4986104;28;20027;-86
2022/05/31 00:52:45;;;;;;;4.30;2.10;;;13.30;99.90;;;;;;4986436;28;20038;-89
2022/05/31 00:55:21;;;;;;;7.03;2.17;;;13.30;99.90;;;;;;4986983;28;20487;-86
2022/05/31 00:58:11;;;;;;;4.05;2.20;;;13.20;99.90;;;;;;4993688;28;20038;-83
2022/05/31 01:00:37;;;;;;;8.15;2.30;;;13.20;99.90;;;;;;5000557;28;20110;-84
2022/05/31 01:03:04;;;;;;;4.97;1.50;;;13.20;99.90;;;;;;5000172;28;20086;-83
2022/05/31 01:05:30;;;;;;;3.67;1.70;;;13.10;99.90;;;;;;4999289;28;20030;-84
2022/05/31 01:07:56;;;;;;;2.95;1.50;;;13.10;99.90;;;;;;4998513;28;20065;-83
2022/05/31 01:10:23;;;;;;;4.18;1.67;;;13.10;99.90;;;;;;4992860;28;20030;-86
2022/05/31 01:13:24;;;;;;;2.85;1.90;;;13.10;99.90;;;;;;4981587;28;20027;-88
2022/05/31 01:16:14;;;;;;;3.67;2.13;;;13.00;99.90;;;;;;4982394;28;20035;-87
2022/05/31 01:19:03;;;;;;;5.50;2.25;;;13.00;99.90;;;;;;4988948;28;20042;-85
2022/05/31 01:21:48;;;;;;;6.57;2.33;;;13.00;99.90;;;;;;4999884;28;20095;-84
2022/05/31 01:24:21;;;;;;;3.90;2.45;;;12.90;99.90;;;;;;4997065;23;20061;-78
2022/05/31 01:26:53;;;;;;;9.95;2.50;;;13.00;99.90;;;;;;4976663;28;20027;-80
2022/05/31 01:29:32;;;;;;;5.47;2.50;;;12.90;99.90;;;;;;4973621;29;20039;-80
2022/05/31 01:31:59;;;;;;;4.63;2.63;;;12.80;99.90;;;;;;4965324;28;20046;-79
2022/05/31 01:34:35;;;;;;;10.07;3.03;;;12.80;99.90;;;;;;4940792;29;20128;-81
2022/05/31 01:37:00;;;;;;;6.72;2.70;;;12.80;99.90;;;;;;4947615;29;20047;-80
2022/05/31 01:39:42;;;;;;;8.55;3.22;;;12.80;99.90;;;;;;4947969;29;20051;-81
2022/05/31 01:42:22;;;;;;;4.97;3.17;;;12.80;99.90;;;;;;4944552;29;20036;-80
2022/05/31 01:44:57;;;;;;;7.47;3.20;;;12.80;99.90;;;;;;4948060;29;20480;-79
2022/05/31 01:47:23;;;;;;;4.32;2.88;;;12.70;99.90;;;;;;4957907;29;20100;-79
2022/05/31 01:49:53;;;;;;;5.65;2.70;;;12.70;99.90;;;;;;4949601;29;20027;-79
2022/05/31 01:52:21;;;;;;;6.28;2.95;;;12.70;99.90;;;;;;4949930;29;20028;-78
2022/05/31 01:54:48;;;;;;;5.22;2.70;;;12.60;99.90;;;;;;4949532;29;20043;-79
2022/05/31 01:57:16;;;;;;;7.45;2.90;;;12.70;99.90;;;;;;4949768;29;20028;-79
2022/05/31 01:59:52;;;;;;;5.55;2.80;;;12.60;99.90;;;;;;4948244;29;20420;-78
2022/05/31 02:02:20;;;;;;;8.43;2.95;;;12.60;99.90;;;;;;4949011;29;20066;-79
2022/05/31 02:04:46;;;;;;;8.88;3.40;;;12.50;99.90;;;;;;4949956;29;20016;-78
2022/05/31 02:07:20;;;;;;;6.43;3.08;;;12.50;99.90;;;;;;4947013;29;20051;-78
2022/05/31 02:09:50;;;;;;;6.00;2.80;;;12.50;99.90;;;;;;4937124;29;20031;-78
2022/05/31 02:12:30;;;;;;;5.88;2.63;;;12.50;99.90;;;;;;4959352;29;20244;-77
2022/05/31 02:15:18;;;;;;;6.20;3.00;;;12.50;99.90;;;;;;4959190;29;20055;-78
2022/05/31 02:18:04;;;;;;;6.13;3.00;;;12.40;99.90;;;;;;4959651;28;20034;-79
2022/05/31 02:20:48;;;;;;;6.20;2.50;;;12.40;99.90;;;;;;4959513;29;20047;-78
2022/05/31 02:23:14;;;;;;;7.35;2.83;;;12.40;99.90;;;;;;4960017;29;20027;-78
2022/05/31 02:25:40;;;;;;;4.97;2.45;;;12.40;99.90;;;;;;4959396;29;20051;-79
2022/05/31 02:28:06;;;;;;;4.93;2.75;;;12.40;99.90;;;;;;4958621;29;20043;-79
2022/05/31 02:30:31;;;;;;;5.50;2.40;;;12.30;99.90;;;;;;4958080;29;20044;-79
2022/05/31 02:32:57;;;;;;;8.85;2.63;;;12.30;99.90;;;;;;4958543;29;20043;-78
2022/05/31 02:35:23;;;;;;;3.65;2.35;;;12.30;99.90;;;;;;4959822;29;20035;-79
2022/05/31 02:37:49;;;;;;;4.32;2.50;;;12.20;99.90;;;;;;4959525;29;20023;-79
2022/05/31 02:40:15;;;;;;;3.80;2.20;;;12.20;99.90;;;;;;4956298;29;20035;-79
2022/05/31 02:42:42;;;;;;;8.18;2.33;;;12.20;99.90;;;;;;4954876;29;20028;-78
2022/05/31 02:45:09;;;;;;;5.13;2.45;;;12.10;99.90;;;;;;4944748;29;20062;-80
2022/05/31 02:47:39;;;;;;;3.85;2.30;;;12.10;99.90;;;;;;4943474;29;20031;-79
2022/05/31 02:50:05;;;;;;;4.05;2.13;;;12.10;99.90;;;;;;4938514;29;20027;-80
2022/05/31 02:52:33;;;;;;;5.85;2.45;;;12.10;99.90;;;;;;4938773;29;20095;-80
2022/05/31 02:54:59;;;;;;;4.25;2.50;;;12.10;99.90;;;;;;4938010;29;20023;-81
2022/05/31 02:57:25;;;;;;;5.88;3.25;;;12.00;99.90;;;;;;4940091;29;20086;-81
2022/05/31 03:00:10;;;;;;;4.85;2.85;;;12.00;99.90;;;;;;4941028;29;20035;-81
2022/05/31 03:03:08;;;;;;;5.25;2.97;;;12.00;99.90;;;;;;4918363;29;20036;-77
2022/05/31 03:05:34;;;;;;;5.07;3.15;;;11.90;99.90;;;;;;4939999;29;20043;-80
2022/05/31 03:08:03;;;;;;;5.15;3.10;;;11.90;99.90;;;;;;4940874;29;20020;-79
2022/05/31 03:10:38;;;;;;;10.32;3.17;;;11.90;99.90;;;;;;4936465;29;20115;-80
2022/05/31 03:13:04;;;;;;;4.85;3.10;;;11.90;99.90;;;;;;4939701;29;20040;-81
2022/05/31 03:15:33;;;;;;;8.20;3.30;;;11.90;99.90;;;;;;4941902;29;20111;-80
2022/05/31 03:18:14;;;;;;;5.10;3.17;;;11.90;99.90;;;;;;4942084;29;20055;-80
2022/05/31 03:20:47;;;;;;;4.78;3.08;;;11.90;99.90;;;;;;4946106;29;20039;-80
2022/05/31 03:23:29;;;;;;;8.00;3.85;;;11.90;99.90;;;;;;4924344;29;20043;-80
2022/05/31 03:25:58;;;;;;;9.25;4.03;;;11.80;99.90;;;;;;4952109;29;20094;-79
2022/05/31 03:28:26;;;;;;;10.98;4.22;;;11.90;99.90;;;;;;4951928;29;20048;-79
2022/05/31 03:30:52;;;;;;;5.95;3.90;;;11.80;99.90;;;;;;4944812;29;20439;-81
2022/05/31 03:33:18;;;;;;;9.07;4.28;;;11.90;99.90;;;;;;4947907;29;20039;-78
2022/05/31 03:35:44;;;;;;;6.60;4.07;;;11.90;99.90;;;;;;4941709;29;20059;-81
2022/05/31 03:38:21;;;;;;;10.40;4.30;;;11.90;99.90;;;;;;4927903;29;20020;-79
2022/05/31 03:40:56;;;;;;;8.25;4.32;;;11.90;99.90;;;;;;4944383;29;20036;-82
2022/05/31 03:43:26;;;;;;;5.40;4.03;;;12.00;99.90;;;;;;4940482;29;20126;-81
2022/05/31 03:46:15;;;;;;;5.20;3.88;;;12.00;99.90;;;;;;4946118;29;20020;-80
2022/05/31 03:49:10;;;;;;;5.15;3.70;;;12.00;99.90;;;;;;4938685;29;20040;-80
2022/05/31 03:51:44;;;;;;;11.48;4.18;;;12.00;99.90;;;;;;4941233;29;20032;-80
2022/05/31 03:54:20;;;;;;;6.55;3.95;;;12.10;99.90;;;;;;4945451;29;20028;-79
2022/05/31 03:57:07;;;;;;;8.85;3.90;;;12.20;99.90;;;;;;4942389;29;20047;-80
2022/05/31 03:59:38;;;;;;;6.40;4.05;;;12.20;99.90;;;;;;4940021;29;20027;-81
2022/05/31 04:02:05;;;;;;;6.20;4.00;;;12.30;99.90;;;;;;4940017;29;20035;-80
2022/05/31 04:04:32;;;;;;;8.50;4.07;;;12.40;99.90;;;;;;4940326;29;20480;-80
2022/05/31 04:06:58;;;;;;;5.35;4.10;;;12.40;99.90;;;;;;4939487;29;20027;-80
2022/05/31 04:09:24;;;;;;;11.27;3.72;;;12.40;99.90;;;;;;4941435;29;20048;-82
2022/05/31 04:11:50;;;;;;;6.22;3.90;;;12.50;99.90;;;;;;4943888;29;20036;-79
2022/05/31 04:14:35;;;;;;;10.23;4.32;;;12.50;99.90;;;;;;4939805;29;20024;-81
2022/05/31 04:17:06;;;;;;;7.03;4.10;;;12.60;99.90;;;;;;4943072;29;20226;-80
2022/05/31 04:19:31;;;;;;;7.55;4.05;;;12.70;99.90;;;;;;4941314;29;20060;-82
2022/05/31 04:21:58;;;;;;;8.55;4.63;;;12.70;99.90;;;;;;4942079;29;20032;-79
2022/05/31 04:24:23;;;;;;;8.35;4.00;;;12.90;99.90;;;;;;4948478;29;20031;-79
2022/05/31 04:27:01;;;;;;;6.57;4.07;;;13.00;99.90;;;;;;4955129;29;20032;-79
2022/05/31 04:29:56;;;;;;;5.80;3.63;;;13.10;99.90;;;;;;4940593;28;20059;-81
2022/05/31 04:32:57;;;;;;;6.55;4.20;;;13.20;99.90;;;;;;4965883;28;20091;-79
2022/05/31 04:35:34;;;;;;;7.38;3.95;;;13.30;99.90;;;;;;4950705;29;20129;-80
2022/05/31 04:37:59;;;;;;;11.43;4.32;;;13.30;99.90;;;;;;4958154;29;20051;-78
2022/05/31 04:40:45;;;;;;;5.20;3.33;;;13.50;99.90;;;;;;4956212;29;20043;-80
2022/05/31 04:43:17;;;;;;;7.18;4.32;;;13.60;99.90;;;;;;4955310;29;20103;-79
2022/05/31 04:46:12;;;;;;;6.30;3.00;;;14.00;99.90;;;;;;4950635;29;20058;-79
2022/05/31 04:48:48;;;;;;;;;;;14.20;99.90;;;;;;4941466;29;20107;-84
2022/05/31 04:51:15;;;;;;;4.93;3.33;;;14.30;99.90;;;;;;4938971;29;20075;-79
2022/05/31 04:53:50;;;;;;;8.73;2.90;;;14.30;99.90;;;;;;4927496;29;20135;-81
2022/05/31 04:56:23;;;;;;;9.32;3.63;;;14.30;99.90;;;;;;4945583;29;20095;-81
2022/05/31 04:58:52;;;;;;;8.80;2.90;;;14.30;99.90;;;;;;4955818;29;20059;-80
2022/05/31 05:01:19;;;;;;;12.88;3.80;;;14.30;99.90;;;;;;4954964;29;20036;-79
2022/05/31 05:03:49;;;;;;;11.00;2.75;;;14.40;99.90;;;;;;4958998;29;20016;-80
2022/05/31 05:06:19;;;;;;;5.13;2.55;;;14.80;99.90;;;;;;4941331;29;20036;-79
2022/05/31 05:08:49;;;;;;;6.57;2.42;;;15.00;99.90;;;;;;4953240;29;20042;-79
2022/05/31 05:11:22;;;;;;;7.30;2.67;;;15.10;99.90;;;;;;4953250;29;20031;-81
2022/05/31 05:14:06;;;;;;;7.13;2.83;;;15.10;99.90;;;;;;4948659;29;20028;-80
2022/05/31 05:16:54;;;;;;;4.75;2.88;;;15.10;99.90;;;;;;4948483;29;20028;-81
2022/05/31 05:19:22;;;;;;;9.63;3.05;;;15.20;99.90;;;;;;4948656;29;20028;-80
2022/05/31 05:21:54;;;;;;;5.07;2.35;;;15.10;99.90;;;;;;4953845;29;20028;-79
2022/05/31 05:24:20;;;;;;;4.68;2.40;;;15.20;99.90;;;;;;4952580;29;20071;-80
2022/05/31 05:27:02;;;;;;;6.50;2.63;;;15.20;99.90;;;;;;4954042;29;20055;-79
2022/05/31 05:32:39;;;;;;;4.85;3.03;;;15.50;99.90;;;;;;4944811;29;20112;-79
2022/05/31 05:35:31;;;;;;;4.75;2.53;;;16.10;99.90;;;;;;4946588;29;20044;-80
2022/05/31 05:38:07;;;;;;;6.93;2.50;;;16.30;99.90;;;;;;4941345;29;20040;-80
2022/05/31 05:40:53;;;;;;;4.40;3.28;;;16.50;99.90;;;;;;4935289;29;20036;-79
2022/05/31 05:43:20;;;;;;;6.95;2.90;;;16.30;99.90;;;;;;4941893;29;20511;-79
2022/05/31 05:45:52;;;;;;;8.15;4.10;;;16.30;99.90;;;;;;4951320;29;20024;-78
2022/05/31 05:48:18;;;;;;;9.60;3.78;;;16.10;99.90;;;;;;4953418;29;20064;-79
2022/05/31 05:50:44;;;;;;;8.32;2.88;;;15.90;99.90;;;;;;4951025;29;20035;-80
2022/05/31 05:53:29;;;;;;;10.67;3.70;;;15.80;99.90;;;;;;4953145;29;20031;-79
2022/05/31 05:56:14;;;;;;;6.30;3.03;;;15.60;99.90;;;;;;4947771;29;20295;-79
2022/05/31 05:58:58;;;;;;;8.73;2.85;;;15.70;99.90;;;;;;4953924;29;20050;-79
2022/05/31 06:02:17;;;;;;;7.53;2.80;;;15.80;99.90;;;;;;4932331;29;20105;-78
2022/05/31 06:05:12;;;;;;;7.85;3.30;;;16.00;99.90;;;;;;4912765;29;20647;-79
2022/05/31 06:07:55;;;;;;;9.27;3.20;;;16.10;99.90;;;;;;4930876;29;20091;-78
2022/05/31 06:10:26;;;;;;;12.63;3.00;;;16.20;99.90;;;;;;4927471;29;20040;-78
2022/05/31 06:12:55;;;;;;;12.75;3.38;;;16.30;99.90;;;;;;4936940;29;20038;-79
2022/05/31 06:15:26;;;;;;;10.50;3.20;;;16.40;99.90;;;;;;4947052;29;20052;-79
2022/05/31 06:17:55;;;;;;;11.20;4.32;;;16.60;99.90;;;;;;4946295;29;20107;-79
2022/05/31 06:20:21;;;;;;;14.70;5.30;;;16.60;99.90;;;;;;4942520;29;20068;-79
2022/05/31 06:22:47;;;;;;;27.58;12.02;;;16.70;99.90;;;;;;4924253;29;20039;-79
2022/05/31 06:25:22;;;;;;;25.80;10.90;;;16.80;99.90;;;;;;4942233;29;20036;-79
2022/05/31 06:27:59;;;;;;;16.08;6.85;;;16.80;99.90;;;;;;4947588;29;20031;-78
2022/05/31 06:30:28;;;;;;;22.42;9.82;;;16.50;99.90;;;;;;4952895;29;20048;-81
2022/05/31 06:32:55;;;;;;;15.68;6.55;;;16.70;99.90;;;;;;4950904;29;20008;-80
2022/05/31 06:35:20;;;;;;;8.57;3.88;;;16.80;99.90;;;;;;4951639;29;20144;-80
2022/05/31 06:37:54;;;;;;;13.75;3.55;;;16.70;99.90;;;;;;4949275;29;20104;-80
2022/05/31 06:40:20;;;;;;;4.47;2.53;;;16.60;99.90;;;;;;4949672;29;20428;-79
2022/05/31 06:43:05;;;;;;;6.25;3.15;;;16.60;99.90;;;;;;4952423;29;20337;-81
2022/05/31 06:45:50;;;;;;;14.52;5.20;;;16.50;99.90;;;;;;4952610;29;20055;-80
2022/05/31 06:48:34;;;;;;;;;;;16.70;99.90;;;;;;4954469;29;20092;-80
2022/05/31 06:56:47;;;;;;;16.92;6.20;;;16.90;99.90;;;;;;4960478;29;19922;-80
2022/05/31 06:57:23;;;;;;;11.40;4.18;;;17.60;99.90;;;;;;4941459;29;20122;-82
2022/05/31 06:59:57;;;;;;;9.43;3.67;;;17.80;99.90;;;;;;4938241;29;20024;-81
2022/05/31 07:02:22;;;;;;;11.90;4.57;;;17.80;99.90;;;;;;4937660;29;20452;-81
2022/05/31 07:04:49;;;;;;;9.30;3.20;;;17.90;99.90;;;;;;4938740;29;20375;-83
2022/05/31 07:07:15;;;;;;;16.58;3.35;;;18.10;99.90;;;;;;4941307;29;20059;-82
2022/05/31 07:09:50;;;;;;;6.07;2.92;;;18.40;99.90;;;;;;4951568;29;20035;-81
2022/05/31 07:12:21;;;;;;;7.43;2.72;;;18.40;99.90;;;;;;4949796;29;20186;-81
2022/05/31 07:15:24;;;;;;;7.57;2.85;;;18.50;99.90;;;;;;4942776;29;20028;-81
2022/05/31 07:18:12;;;;;;;5.60;2.60;;;18.60;99.90;;;;;;4954475;29;20035;-81
2022/05/31 07:20:38;;;;;;;5.55;2.22;;;18.60;99.90;;;;;;4953089;29;20091;-79
2022/05/31 07:23:05;;;;;;;5.38;2.03;;;18.60;99.40;;;;;;4980892;23;20040;-85
2022/05/31 07:25:34;;;;;;;3.75;1.90;;;18.60;99.40;;;;;;4968637;29;20028;-85
2022/05/31 07:28:08;;;;;;;3.13;1.70;;;18.60;99.60;;;;;;4966832;29;20039;-84
2022/05/31 07:30:35;;;;;;;6.25;1.95;;;18.60;99.20;;;;;;4964846;29;20038;-85
2022/05/31 07:33:03;;;;;;;3.17;1.63;;;18.60;99.20;;;;;;4970912;29;20011;-84
2022/05/31 07:35:29;;;;;;;3.47;1.60;;;18.70;99.00;;;;;;4992877;28;20051;-86
2022/05/31 07:37:56;;;;;;;3.75;2.08;;;18.70;99.20;;;;;;4992416;28;20028;-83
2022/05/31 07:40:26;;;;;;;5.30;1.90;;;18.70;98.80;;;;;;4992326;28;20026;-83
2022/05/31 07:42:52;;;;;;;5.55;1.88;;;18.80;98.60;;;;;;4987352;28;20054;-84
2022/05/31 07:45:18;;;;;;;5.85;2.50;;;19.00;98.60;;;;;;4984872;28;20059;-84
2022/05/31 07:47:44;;;;;;;4.25;2.00;;;19.10;98.50;;;;;;4971958;29;20086;-82
2022/05/31 07:50:11;;;;;;;4.60;2.47;;;19.10;98.80;;;;;;4986958;28;20039;-84
2022/05/31 07:52:36;;;;;;;7.13;3.10;;;19.20;98.50;;;;;;4971943;28;20107;-83
2022/05/31 07:55:20;;;;;;;9.25;2.65;;;19.20;98.10;;;;;;4970654;29;20046;-83
2022/05/31 08:01:01;;;;;;;9.40;3.55;;;19.40;98.10;;;;;;4978852;29;20047;-84
2022/05/31 08:03:27;;;;;;;8.73;2.80;;;19.40;98.30;;;;;;4980352;28;20023;-84
2022/05/31 08:05:53;;;;;;;7.15;2.17;;;19.40;98.00;;;;;;4993787;28;20058;-84
2022/05/31 08:08:19;;;;;;;3.65;2.10;;;19.20;98.50;;;;;;4974060;28;20102;-83
2022/05/31 08:10:45;;;;;;;6.50;2.10;;;19.30;98.20;;;;;;4974265;28;20027;-83
2022/05/31 08:13:11;;;;;;;7.53;2.58;;;19.40;98.30;;;;;;4976537;29;20062;-84
2022/05/31 08:15:36;;;;;;;4.10;2.40;;;19.50;97.80;;;;;;4970550;29;20137;-84
2022/05/31 08:18:02;;;;;;;7.10;2.65;;;19.50;97.50;;;;;;4992797;28;20031;-82
2022/05/31 08:20:28;;;;;;;4.97;2.70;;;19.60;97.90;;;;;;4971329;29;20078;-83
2022/05/31 08:22:55;;;;;;;5.78;2.92;;;19.70;97.90;;;;;;4969843;29;20404;-85
2022/05/31 08:25:21;;;;;;;6.28;2.97;;;19.40;98.00;;;;;;4972940;28;20082;-83
2022/05/31 08:27:47;;;;;;;7.72;3.47;;;19.20;98.20;;;;;;4978683;28;20035;-84
2022/05/31 08:30:12;;;;;;;9.48;3.72;;;19.10;98.40;;;;;;4974783;28;20039;-83
2022/05/31 08:32:38;;;;;;;10.55;3.53;;;19.10;98.60;;;;;;4969598;29;20041;-83
2022/05/31 08:35:06;;;;;;;11.10;3.00;;;19.10;98.90;;;;;;4969047;29;20052;-84
2022/05/31 08:37:32;;;;;;;8.05;2.63;;;19.30;99.10;;;;;;4973195;28;20058;-86
2022/05/31 08:39:58;;;;;;;11.80;2.70;;;19.50;98.90;;;;;;4978316;28;20027;-84
2022/05/31 08:42:52;;;;;;;12.55;3.72;;;19.60;98.70;;;;;;4989650;28;20076;-84
2022/05/31 08:45:24;;;;;;;9.57;3.70;;;19.60;98.50;;;;;;4974703;29;20035;-85
2022/05/31 08:48:02;;;;;;;8.18;3.13;;;19.70;98.90;;;;;;4977479;28;20054;-85
2022/05/31 08:53:30;;;;;;;7.47;2.58;;;19.60;99.30;;;;;;4980547;28;20019;-84
2022/05/31 08:59:24;;;;;;;5.38;3.45;;;19.90;99.80;;;;;;4996078;28;20290;-84
2022/05/31 09:01:57;;;;;;;6.45;3.60;;;19.90;99.80;;;;;;4967915;28;20031;-82
2022/05/31 09:04:39;;;;;;;5.88;2.70;;;19.90;99.80;;;;;;4979669;28;20043;-83
2022/05/31 09:07:23;;;;;;;5.65;2.67;;;20.00;99.90;;;;;;4980147;28;20038;-83
2022/05/31 09:10:04;;;;;;;5.38;2.30;;;20.00;99.90;;;;;;4967517;28;20503;-84
2022/05/31 09:12:39;;;;;;;11.43;2.35;;;20.00;99.90;;;;;;4995475;28;20074;-83
2022/05/31 09:15:09;;;;;;;5.53;2.60;;;20.10;99.90;;;;;;4979894;28;20054;-82
2022/05/31 09:17:56;;;;;;;7.72;3.10;;;20.20;99.70;;;;;;4969757;28;20055;-83
2022/05/31 09:20:43;;;;;;;5.80;2.15;;;20.30;99.40;;;;;;4969723;28;20042;-83
2022/05/31 09:23:12;;;;;;;7.50;2.83;;;20.30;98.20;;;;;;4970924;28;20027;-85
2022/05/31 09:25:41;;;;;;;7.57;2.80;;;20.30;98.10;;;;;;4970220;28;20031;-85
2022/05/31 09:28:35;;;;;;;9.43;2.75;;;20.30;98.20;;;;;;4972920;28;20042;-84
2022/05/31 09:31:09;;;;;;;8.40;2.15;;;20.40;97.70;;;;;;4978598;28;20093;-84
2022/05/31 09:33:40;;;;;;;3.30;2.03;;;20.40;97.80;;;;;;4975904;28;20023;-85
2022/05/31 09:36:17;;;;;;;3.33;1.50;;;20.50;97.30;;;;;;4972425;28;20046;-85
2022/05/31 09:39:03;;;;;;;6.38;1.80;;;20.70;96.90;;;;;;4970585;29;20036;-85
2022/05/31 09:41:35;;;;;;;7.53;2.67;;;20.90;96.40;;;;;;4971039;29;20035;-85
2022/05/31 09:44:34;;;;;;;6.88;1.90;;;21.40;96.30;;;;;;4973740;28;20035;-84
2022/05/31 09:47:06;;;;;;;3.92;2.15;;;21.90;95.90;;;;;;4975612;28;20054;-83
2022/05/31 09:49:39;;;;;;;5.22;2.20;;;22.30;95.20;;;;;;4976403;28;20590;-84
2022/05/31 09:52:30;;;;;;;4.28;2.20;;;22.70;95.10;;;;;;4990809;28;20105;-84
2022/05/31 09:58:39;;;;;;;3.83;1.95;;;23.90;93.60;;;;;;4973106;28;20037;-84
2022/05/31 10:01:26;;;;;;;9.85;2.45;;;24.20;91.40;;;;;;4992064;28;20108;-85
2022/05/31 10:04:20;;;;;;;2.83;1.95;;;24.80;91.70;;;;;;4978253;28;20057;-85
2022/05/31 10:06:57;;;;;;;;;;;25.20;90.40;;;;;;4978042;29;20030;-85
2022/05/31 10:09:34;;;;;;;9.35;2.25;;;25.50;89.30;;;;;;4976290;29;19899;-84
2022/05/31 10:12:26;;;;;;;3.15;1.50;;;26.60;87.00;;;;;;4976019;29;20035;-84
2022/05/31 10:14:54;;;;;;;4.55;1.30;;;27.50;82.70;;;;;;4992019;28;20092;-85
2022/05/31 10:17:42;;;;;;;5.90;1.75;;;27.40;79.10;;;;;;4976837;28;20063;-85
2022/05/31 10:20:21;;;;;;;4.00;1.90;;;27.50;79.70;;;;;;4973505;29;20027;-87
2022/05/31 10:22:51;;;;;;;5.20;2.08;;;28.60;77.30;;;;;;4970645;28;20079;-84
2022/05/31 10:25:40;;;;;;;6.32;1.52;;;29.40;74.30;;;;;;4970165;29;20102;-85
2022/05/31 10:28:39;;;;;;;3.88;1.20;;;30.40;70.50;;;;;;4971377;29;20071;-85
2022/05/31 10:31:25;;;;;;;7.32;1.60;;;30.60;68.30;;;;;;4983990;28;20518;-86
2022/05/31 10:33:57;;;;;;;3.85;1.10;;;30.30;67.40;;;;;;4970208;28;20059;-84
2022/05/31 10:36:52;;;;;;;4.28;1.30;;;30.70;65.80;;;;;;4967888;29;20027;-85
2022/05/31 10:39:22;;;;;;;;;;;31.20;64.00;;;;;;4959518;29;20031;-85
2022/05/31 10:41:50;;;;;;;5.25;1.40;;;30.60;63.80;;;;;;4972735;29;19909;-85
2022/05/31 10:44:29;;;;;;;2.28;1.30;;;30.80;64.30;;;;;;4972764;28;20020;-85
2022/05/31 10:47:16;;;;;;;3.75;1.33;;;30.50;63.50;;;;;;4973763;28;20038;-84
2022/05/31 10:49:43;;;;;;;2.20;1.10;;;31.20;62.70;;;;;;4975363;28;20027;-84
2022/05/31 10:52:47;;;;;;;3.88;1.02;;;31.80;61.50;;;;;;4976273;28;20033;-84
2022/05/31 10:55:46;;;;;;;2.15;1.30;;;32.50;61.00;;;;;;4977161;28;20035;-84
2022/05/31 10:58:42;;;;;;;2.70;1.30;;;32.20;60.40;;;;;;4970369;28;20047;-85
2022/05/31 11:01:26;;;;;;;1.48;1.17;;;32.30;60.40;;;;;;4981486;28;20027;-85
2022/05/31 11:04:16;;;;;;;3.92;1.33;;;32.40;59.70;;;;;;4967154;28;20035;-85
2022/05/31 11:07:13;;;;;;;2.13;1.20;;;32.70;59.30;;;;;;4966687;29;20046;-86
2022/05/31 11:13:06;;;;;;;4.28;2.45;;;32.10;59.60;;;;;;4966787;29;20043;-83
2022/05/31 11:15:55;;;;;;;7.15;2.38;;;32.10;59.40;;;;;;4969161;29;20043;-86
2022/05/31 11:18:39;;;;;;;10.73;1.77;;;33.60;58.40;;;;;;4967270;28;20035;-84
2022/05/31 11:21:26;;;;;;;2.85;1.20;;;34.10;57.20;;;;;;4965505;29;20027;-85
2022/05/31 11:24:11;;;;;;;4.00;0.98;;;33.30;56.80;;;;;;4965639;28;20032;-85
2022/05/31 11:27:09;;;;;;;7.78;1.00;;;32.60;57.00;;;;;;4974224;28;20039;-84
2022/05/31 11:29:38;;;;;;;6.75;1.20;;;32.90;56.60;;;;;;4964762;28;20050;-86
2022/05/31 11:32:24;;;;;;;3.05;1.00;;;33.10;56.60;;;;;;4971369;28;20023;-85
2022/05/31 11:35:09;;;;;;;4.55;1.40;;;33.60;56.30;;;;;;4978747;28;20049;-84
2022/05/31 11:37:56;;;;;;;4.90;1.77;;;34.40;55.70;;;;;;4975760;28;20031;-85
2022/05/31 11:40:44;;;;;;;2.55;1.30;;;34.70;55.50;;;;;;4988952;28;20039;-86
2022/05/31 11:43:34;;;;;;;2.22;1.30;;;34.20;55.40;;;;;;4969083;29;20398;-85
2022/05/31 11:46:26;;;;;;;3.13;1.40;;;34.50;55.10;;;;;;4969405;28;20035;-85
2022/05/31 11:49:02;;;;;;;6.30;1.33;;;34.00;55.60;;;;;;4971613;28;20035;-85
2022/05/31 11:51:49;;;;;;;3.28;1.20;;;34.30;55.30;;;;;;4974523;29;20039;-85
2022/05/31 11:54:36;;;;;;;2.42;1.13;;;34.90;54.60;;;;;;4979112;29;20027;-85
2022/05/31 11:57:27;;;;;;;4.43;1.55;;;35.20;54.50;;;;;;4978174;28;20047;-84
2022/05/31 12:00:03;;;;;;;2.22;1.35;;;36.00;53.80;;;;;;4975387;28;20038;-85
2022/05/31 12:02:56;;;;;;;3.95;1.13;;;34.80;54.20;;;;;;4980734;28;20032;-83
2022/05/31 12:05:33;;;;;;;2.78;1.40;;;35.20;54.40;;;;;;4960336;28;20060;-84
2022/05/31 12:08:02;;;;;;;2.13;1.30;;;35.90;54.00;;;;;;4960074;29;20032;-86
2022/05/31 12:10:33;;;;;;;2.08;1.20;;;35.70;53.60;;;;;;4965963;28;20106;-84
2022/05/31 12:13:07;;;;;;;3.50;1.25;;;35.30;53.20;;;;;;4974168;28;20034;-84
2022/05/31 12:15:36;;;;;;;4.57;1.23;;;34.00;54.50;;;;;;4955114;28;20027;-85
2022/05/31 12:18:22;;;;;;;1.80;1.40;;;34.00;55.10;;;;;;4955062;28;20051;-86
2022/05/31 12:20:55;;;;;;;5.63;1.35;;;34.70;55.10;;;;;;4954061;29;20031;-85
2022/05/31 12:23:40;;;;;;;3.22;1.30;;;35.10;54.80;;;;;;4951746;29;20047;-84
2022/05/31 12:26:36;;;;;;;3.60;1.40;;;35.60;54.00;;;;;;4955437;29;20083;-85
2022/05/31 12:29:05;;;;;;;5.25;1.70;;;36.50;53.30;;;;;;4933792;29;20057;-84
2022/05/31 12:31:36;;;;;;;1.75;1.15;;;35.20;53.60;;;;;;4954699;29;20062;-86
2022/05/31 12:34:20;;;;;;;5.32;1.38;;;35.30;53.90;;;;;;4953686;29;20067;-84
2022/05/31 12:36:58;;;;;;;4.70;1.42;;;35.30;53.90;;;;;;4958987;29;20065;-86
2022/05/31 12:39:30;;;;;;;7.70;1.25;;;35.80;53.60;;;;;;4935674;29;20043;-84
2022/05/31 12:41:57;;;;;;;4.32;1.55;;;35.70;53.50;;;;;;4971162;28;20100;-85
2022/05/31 12:44:32;;;;;;;1.60;1.23;;;35.50;53.40;;;;;;4957836;28;20058;-85
2022/05/31 12:47:27;;;;;;;7.60;1.35;;;35.30;53.50;;;;;;4958687;29;20047;-85
2022/05/31 12:50:04;;;;;;;3.25;1.13;;;36.40;52.60;;;;;;4959558;29;20027;-84
2022/05/31 12:55:26;;;;;;;5.97;1.20;;;36.00;51.70;;;;;;4958581;29;20076;-87
2022/05/31 12:58:35;;;;;;;3.78;0.90;;;35.70;51.80;;;;;;4958787;29;20139;-86
2022/05/31 13:01:27;;;;;;;6.05;2.13;;;35.00;52.00;;;;;;4957865;29;20043;-85
2022/05/31 13:04:06;;;;;;;3.58;1.48;;;34.60;52.30;;;;;;4958668;29;20024;-84
2022/05/31 13:06:37;;;;;;;8.70;1.48;;;34.30;52.90;;;;;;4956867;29;20042;-86
2022/05/31 13:09:30;;;;;;;3.85;1.10;;;34.70;53.10;;;;;;4952013;29;20040;-84
2022/05/31 13:19:34;;;;;;;4.72;1.40;;;35.00;52.70;;;;;;4935617;29;20067;-85
2022/05/31 13:21:11;;;;;;;;;;;35.80;51.90;;;;;;4949136;29;20100;-85
2022/05/31 13:23:43;;;;;;;2.40;1.40;;;36.00;51.90;;;;;;4950131;29;20335;-85
2022/05/31 13:26:20;;;;;;;5.75;1.00;;;35.30;52.10;;;;;;4957806;28;20053;-84
2022/05/31 13:29:05;;;;;;;4.78;1.42;;;35.20;52.20;;;;;;4955478;29;20055;-86
2022/05/31 13:31:37;;;;;;;1.42;1.15;;;35.40;52.20;;;;;;4963216;28;20047;-87
2022/05/31 13:34:07;;;;;;;1.88;1.25;;;35.90;51.90;;;;;;4976582;28;20100;-83
2022/05/31 13:36:45;;;;;;;5.85;1.85;;;35.60;51.80;;;;;;4967061;28;20034;-83
2022/05/31 13:39:14;;;;;;;5.82;1.65;;;35.20;52.10;;;;;;4991804;23;20368;-83
2022/05/31 13:41:48;;;;;;;2.85;1.35;;;35.30;52.10;;;;;;4943041;29;20048;-82
2022/05/31 13:44:19;;;;;;;;;;;35.10;51.50;;;;;;4941671;29;20043;-83
2022/05/31 13:46:47;;;;;;;4.45;1.65;;;34.40;52.00;;;;;;4942877;29;20001;-82
2022/05/31 13:49:18;;;;;;;3.80;1.35;;;35.10;52.10;;;;;;4941819;29;20047;-81
2022/05/31 13:51:53;;;;;;;5.22;1.40;;;35.50;52.00;;;;;;4952887;29;20032;-82
2022/05/31 13:54:22;;;;;;;5.82;1.73;;;35.90;51.50;;;;;;4953318;29;20071;-82
2022/05/31 13:56:49;;;;;;;2.85;1.33;;;36.60;51.10;;;;;;4968842;28;20088;-82
2022/05/31 13:59:35;;;;;;;3.45;1.40;;;36.60;51.60;;;;;;4954967;29;20040;-83
2022/05/31 14:02:03;;;;;;;2.55;1.80;;;36.50;50.70;;;;;;4945110;29;20111;-83